Time;durP1;ratioP1;P1;durP2;ratioP2;P2;SDS_P1;SDS_P2;PMS_P1;PMS_P2;Temp;Humidity;BMP_temperature;BMP_pressure;BME280_temperature;BME280_humidity;BME280_pressure;Samples;Min_cycle;Max_cycle;Signal;HPM_P1;HPM_P2
2021/03/06 00:02:22;;;;;;;0.17;0.17;;;1.20;99.90;;;;;;5029401;28;20221;-82
2021/03/06 00:04:48;;;;;;;0.10;0.10;;;1.20;99.90;;;;;;5031227;28;20180;-82
2021/03/06 00:07:14;;;;;;;0.10;0.10;;;1.20;99.90;;;;;;5026131;28;20202;-82
2021/03/06 00:09:39;;;;;;;0.10;0.10;;;1.20;99.90;;;;;;5031210;28;20192;-81
2021/03/06 00:12:05;;;;;;;0.23;0.23;;;1.20;99.90;;;;;;5030732;28;20690;-82
2021/03/06 00:14:31;;;;;;;0.83;0.40;;;1.20;99.90;;;;;;5032202;28;20244;-81
2021/03/06 00:16:57;;;;;;;0.43;0.20;;;1.20;99.90;;;;;;5045156;28;20662;-82
2021/03/06 00:19:23;;;;;;;0.17;0.17;;;1.10;99.90;;;;;;5031744;28;20200;-82
2021/03/06 00:21:49;;;;;;;0.90;0.17;;;1.10;99.90;;;;;;5028726;28;20586;-82
2021/03/06 00:24:14;;;;;;;0.10;0.10;;;1.10;99.90;;;;;;5031726;28;20608;-82
2021/03/06 00:26:40;;;;;;;0.00;0.00;;;1.10;99.90;;;;;;5030052;28;20224;-82
2021/03/06 00:29:05;;;;;;;1.03;0.60;;;1.10;99.90;;;;;;5024901;28;20196;-82
2021/03/06 00:31:31;;;;;;;0.10;0.10;;;1.10;99.90;;;;;;5029498;28;20594;-81
2021/03/06 00:33:57;;;;;;;0.10;0.10;;;1.10;99.90;;;;;;5030112;28;20190;-82
2021/03/06 00:36:22;;;;;;;0.00;0.00;;;1.10;99.90;;;;;;5029682;28;20183;-82
2021/03/06 00:38:48;;;;;;;0.13;0.13;;;1.00;99.90;;;;;;5028516;28;20178;-82
2021/03/06 00:41:14;;;;;;;0.30;0.30;;;1.00;99.90;;;;;;5028966;28;20190;-82
2021/03/06 00:43:39;;;;;;;0.03;0.03;;;1.00;99.90;;;;;;5031601;28;20246;-82
2021/03/06 00:46:05;;;;;;;0.10;0.10;;;1.00;99.90;;;;;;5029473;28;20190;-82
2021/03/06 00:48:31;;;;;;;0.10;0.10;;;1.00;99.90;;;;;;5045339;28;20696;-82
2021/03/06 00:50:56;;;;;;;0.20;0.20;;;1.00;99.90;;;;;;5027014;28;20176;-82
2021/03/06 00:53:22;;;;;;;0.10;0.10;;;1.10;99.90;;;;;;5028993;28;20210;-82
2021/03/06 00:55:47;;;;;;;0.83;0.20;;;1.00;99.90;;;;;;5028436;28;20296;-81
2021/03/06 00:58:13;;;;;;;0.10;0.10;;;1.10;99.90;;;;;;5029673;28;20186;-81
2021/03/06 01:00:38;;;;;;;0.33;0.33;;;1.00;99.90;;;;;;5032992;28;20192;-82
2021/03/06 01:03:04;;;;;;;0.10;0.10;;;1.00;99.90;;;;;;5028107;28;20719;-83
2021/03/06 01:05:30;;;;;;;3.40;0.40;;;1.00;99.90;;;;;;5028693;28;20698;-82
2021/03/06 01:07:55;;;;;;;0.10;0.10;;;1.00;99.90;;;;;;5022403;28;20208;-81
2021/03/06 01:10:26;;;;;;;0.10;0.10;;;1.00;99.90;;;;;;5028683;28;20236;-82
2021/03/06 01:12:51;;;;;;;0.10;0.10;;;0.90;99.90;;;;;;5027163;28;20219;-82
2021/03/06 01:15:17;;;;;;;0.13;0.13;;;0.90;99.90;;;;;;5045045;28;20192;-82
2021/03/06 01:17:43;;;;;;;0.10;0.10;;;0.90;99.90;;;;;;5029787;28;20278;-82
2021/03/06 01:20:09;;;;;;;0.17;0.17;;;0.90;99.90;;;;;;5029013;28;20192;-82
2021/03/06 01:22:35;;;;;;;0.00;0.00;;;0.90;99.90;;;;;;5028600;28;20264;-82
2021/03/06 01:25:01;;;;;;;0.30;0.30;;;0.90;99.90;;;;;;5028542;28;20706;-82
2021/03/06 01:27:26;;;;;;;0.10;0.10;;;0.90;99.90;;;;;;5028384;28;20239;-82
2021/03/06 01:29:52;;;;;;;0.10;0.10;;;0.80;99.90;;;;;;5023689;28;20186;-82
2021/03/06 01:32:17;;;;;;;0.10;0.10;;;0.80;99.90;;;;;;5028246;28;20353;-82
2021/03/06 01:34:43;;;;;;;1.90;0.30;;;0.80;99.90;;;;;;5028519;28;20229;-82
2021/03/06 01:37:08;;;;;;;0.10;0.10;;;0.80;99.90;;;;;;5028692;28;20190;-82
2021/03/06 01:39:35;;;;;;;0.10;0.10;;;0.80;99.90;;;;;;5027655;28;20277;-82
2021/03/06 01:42:00;;;;;;;0.00;0.00;;;0.70;99.90;;;;;;5029281;28;20234;-82
2021/03/06 01:44:26;;;;;;;0.10;0.10;;;0.70;99.90;;;;;;5029233;28;20221;-82
2021/03/06 01:46:52;;;;;;;0.20;0.20;;;0.70;99.90;;;;;;5024458;28;20212;-82
2021/03/06 01:49:17;;;;;;;1.80;1.67;;;0.70;99.90;;;;;;5028575;28;20786;-82
2021/03/06 01:51:43;;;;;;;0.00;0.00;;;0.60;99.90;;;;;;5027192;28;20202;-82
2021/03/06 01:54:10;;;;;;;0.20;0.20;;;0.70;99.90;;;;;;5028771;28;20187;-81
2021/03/06 01:56:36;;;;;;;0.10;0.10;;;0.80;99.90;;;;;;5030619;28;20182;-81
2021/03/06 01:59:02;;;;;;;0.10;0.10;;;0.70;99.90;;;;;;5030431;28;20325;-82
2021/03/06 02:01:28;;;;;;;0.30;0.17;;;0.80;99.90;;;;;;5026799;28;20202;-82
2021/03/06 02:03:54;;;;;;;0.10;0.10;;;0.80;99.90;;;;;;5032551;28;20612;-81
2021/03/06 02:06:19;;;;;;;0.10;0.10;;;0.80;99.90;;;;;;5031639;28;20200;-82
2021/03/06 02:08:46;;;;;;;0.10;0.10;;;0.80;99.90;;;;;;5032695;28;20197;-82
2021/03/06 02:11:24;;;;;;;0.10;0.10;;;0.90;99.90;;;;;;5031043;28;20265;-82
2021/03/06 02:14:05;;;;;;;0.10;0.10;;;1.00;99.90;;;;;;5033751;28;20244;-82
2021/03/06 02:16:40;;;;;;;0.10;0.10;;;1.00;99.90;;;;;;5049837;28;20195;-82
2021/03/06 02:19:15;;;;;;;0.10;0.10;;;1.00;99.90;;;;;;5032239;28;20608;-82
2021/03/06 02:22:18;;;;;;;0.00;0.00;;;1.00;99.90;;;;;;5030827;28;20232;-82
2021/03/06 02:25:40;;;;;;;0.10;0.10;;;1.00;99.90;;;;;;5031945;28;20280;-82
2021/03/06 02:28:23;;;;;;;0.10;0.10;;;1.00;99.90;;;;;;5047950;28;20246;-82
2021/03/06 02:30:51;;;;;;;0.00;0.00;;;0.90;99.90;;;;;;5028544;28;20188;-81
2021/03/06 02:33:19;;;;;;;0.10;0.10;;;0.90;99.90;;;;;;5048793;28;20288;-82
2021/03/06 02:35:47;;;;;;;0.00;0.00;;;0.90;99.90;;;;;;5032247;28;20182;-82
2021/03/06 02:38:15;;;;;;;0.10;0.10;;;0.90;99.90;;;;;;5030261;28;20191;-82
2021/03/06 02:40:42;;;;;;;0.40;0.40;;;1.00;99.90;;;;;;5031825;28;20273;-82
2021/03/06 02:43:09;;;;;;;0.13;0.13;;;1.00;99.90;;;;;;5032898;28;20240;-82
2021/03/06 02:45:36;;;;;;;0.00;0.00;;;1.00;99.90;;;;;;5031814;28;20195;-82
2021/03/06 02:48:02;;;;;;;0.30;0.30;;;1.00;99.90;;;;;;5024451;28;20244;-82
2021/03/06 02:50:28;;;;;;;0.10;0.10;;;1.00;99.90;;;;;;5027789;28;20182;-82
2021/03/06 02:52:54;;;;;;;0.37;0.17;;;0.90;99.90;;;;;;5032168;28;20265;-82
2021/03/06 02:55:19;;;;;;;0.20;0.20;;;0.90;99.90;;;;;;5031569;28;20182;-82
2021/03/06 02:58:00;;;;;;;0.40;0.40;;;0.90;99.90;;;;;;5031761;28;20606;-82
2021/03/06 03:00:37;;;;;;;0.50;0.30;;;0.90;99.90;;;;;;5028002;28;20192;-82
2021/03/06 03:03:17;;;;;;;0.00;0.00;;;0.70;99.90;;;;;;5022564;28;20305;-82
2021/03/06 03:06:10;;;;;;;0.10;0.10;;;0.70;99.90;;;;;;5032467;28;20265;-82
2021/03/06 03:08:46;;;;;;;0.10;0.10;;;0.60;99.90;;;;;;5031290;28;20191;-82
2021/03/06 03:11:14;;;;;;;1.20;0.30;;;0.40;99.90;;;;;;5032590;28;20183;-82
2021/03/06 03:13:49;;;;;;;0.70;0.17;;;0.50;99.90;;;;;;5032421;28;20220;-81
2021/03/06 03:16:23;;;;;;;0.20;0.20;;;0.50;99.90;;;;;;5048047;28;20270;-82
2021/03/06 03:18:54;;;;;;;0.20;0.20;;;0.60;99.90;;;;;;5030018;28;20180;-82
2021/03/06 03:21:23;;;;;;;0.33;0.33;;;0.60;99.90;;;;;;5032776;28;20184;-82
2021/03/06 03:24:00;;;;;;;0.00;0.00;;;0.60;99.90;;;;;;5031086;28;20190;-82
2021/03/06 03:26:28;;;;;;;0.10;0.10;;;0.60;99.90;;;;;;5032452;28;20184;-82
2021/03/06 03:28:55;;;;;;;0.27;0.27;;;0.60;99.90;;;;;;5031080;28;20612;-82
2021/03/06 03:31:24;;;;;;;0.10;0.10;;;0.70;99.90;;;;;;5030519;28;20553;-82
2021/03/06 03:33:51;;;;;;;0.10;0.10;;;0.50;99.90;;;;;;5032050;28;20181;-82
2021/03/06 03:36:17;;;;;;;1.00;0.20;;;0.50;99.90;;;;;;5031707;28;20197;-82
2021/03/06 03:38:45;;;;;;;0.00;0.00;;;0.60;99.90;;;;;;5033839;28;20294;-82
2021/03/06 03:41:11;;;;;;;0.10;0.10;;;0.60;99.90;;;;;;5031592;28;20274;-82
2021/03/06 03:43:39;;;;;;;0.30;0.30;;;0.50;99.90;;;;;;5030741;28;20259;-82
2021/03/06 03:46:06;;;;;;;0.10;0.10;;;0.50;99.90;;;;;;5031138;28;20185;-82
2021/03/06 03:48:33;;;;;;;0.10;0.10;;;0.50;99.90;;;;;;5031605;28;20225;-82
2021/03/06 03:51:02;;;;;;;0.00;0.00;;;0.40;99.90;;;;;;5031849;28;20178;-82
2021/03/06 03:53:28;;;;;;;0.20;0.20;;;0.40;99.90;;;;;;5032169;28;20207;-82
2021/03/06 03:55:53;;;;;;;0.10;0.10;;;0.20;99.90;;;;;;5030910;28;20240;-82
2021/03/06 03:58:19;;;;;;;0.87;0.40;;;0.20;99.90;;;;;;5029867;28;20792;-82
2021/03/06 04:00:45;;;;;;;0.10;0.10;;;0.10;99.90;;;;;;5032494;28;20591;-82
2021/03/06 04:03:15;;;;;;;0.07;0.07;;;0.10;99.90;;;;;;5029780;28;20265;-82
2021/03/06 04:05:40;;;;;;;0.00;0.00;;;0.10;99.90;;;;;;5031991;28;20190;-82
2021/03/06 04:08:06;;;;;;;0.53;0.53;;;0.20;99.90;;;;;;5031536;28;20216;-82
2021/03/06 04:10:32;;;;;;;0.10;0.10;;;0.30;99.90;;;;;;5029380;28;20190;-81
2021/03/06 04:12:58;;;;;;;0.10;0.10;;;0.30;99.90;;;;;;5029491;28;20248;-82
2021/03/06 04:15:24;;;;;;;0.10;0.10;;;0.30;99.90;;;;;;5031619;28;20655;-82
2021/03/06 04:17:51;;;;;;;0.00;0.00;;;0.30;99.90;;;;;;5031427;28;20187;-82
2021/03/06 04:20:20;;;;;;;0.00;0.00;;;0.30;99.90;;;;;;5026518;28;20187;-82
2021/03/06 04:22:46;;;;;;;0.93;0.23;;;0.30;99.90;;;;;;5026460;28;20214;-81
2021/03/06 04:25:12;;;;;;;0.10;0.10;;;0.20;99.90;;;;;;5030215;28;20187;-82
2021/03/06 04:27:38;;;;;;;0.10;0.10;;;0.30;99.90;;;;;;5030681;28;20207;-82
2021/03/06 04:30:06;;;;;;;0.10;0.10;;;0.20;99.90;;;;;;5046807;28;20187;-82
2021/03/06 04:32:33;;;;;;;0.00;0.00;;;0.20;99.90;;;;;;5029001;28;20206;-82
2021/03/06 04:34:59;;;;;;;0.30;0.30;;;0.30;99.90;;;;;;5028819;28;20178;-82
2021/03/06 04:37:24;;;;;;;0.43;0.43;;;0.30;99.90;;;;;;5026496;28;20196;-82
2021/03/06 04:39:50;;;;;;;0.33;0.13;;;0.20;99.90;;;;;;5030404;28;20194;-81
2021/03/06 04:42:16;;;;;;;0.00;0.00;;;0.30;99.90;;;;;;5028133;28;20230;-82
2021/03/06 04:44:41;;;;;;;0.10;0.10;;;0.30;99.90;;;;;;5021867;28;20272;-82
2021/03/06 04:47:07;;;;;;;0.10;0.10;;;0.40;99.90;;;;;;5029389;28;20216;-82
2021/03/06 04:49:33;;;;;;;0.07;0.07;;;0.40;99.90;;;;;;5030676;28;20186;-82
2021/03/06 04:51:59;;;;;;;0.00;0.00;;;0.40;99.90;;;;;;5028911;28;20206;-81
2021/03/06 04:54:25;;;;;;;0.10;0.10;;;0.40;99.90;;;;;;5030566;28;20658;-82
2021/03/06 04:56:51;;;;;;;0.10;0.10;;;0.40;99.90;;;;;;5030379;28;20544;-82
2021/03/06 04:59:17;;;;;;;0.17;0.17;;;0.40;99.90;;;;;;5030074;28;20193;-81
2021/03/06 05:01:43;;;;;;;0.10;0.10;;;0.50;99.90;;;;;;5026246;28;20213;-82
2021/03/06 05:04:09;;;;;;;0.10;0.10;;;0.50;99.90;;;;;;5031590;28;20187;-82
2021/03/06 05:06:34;;;;;;;0.00;0.00;;;0.30;99.90;;;;;;5030056;28;20206;-81
2021/03/06 05:09:00;;;;;;;0.10;0.10;;;0.30;99.90;;;;;;5030909;28;20187;-81
2021/03/06 05:11:25;;;;;;;0.10;0.10;;;0.30;99.90;;;;;;5028637;28;20273;-82
2021/03/06 05:13:51;;;;;;;0.13;0.07;;;0.20;99.90;;;;;;5046105;28;20654;-82
2021/03/06 05:16:17;;;;;;;0.00;0.00;;;0.20;99.90;;;;;;5029901;28;20183;-82
2021/03/06 05:18:42;;;;;;;0.47;0.20;;;0.20;99.90;;;;;;5029433;28;20555;-82
2021/03/06 05:21:08;;;;;;;0.47;0.47;;;0.20;99.90;;;;;;5027781;28;20706;-82
2021/03/06 05:23:34;;;;;;;0.03;0.03;;;0.20;99.90;;;;;;5029826;28;20695;-82
2021/03/06 05:26:00;;;;;;;0.10;0.10;;;0.20;99.90;;;;;;5027888;28;20175;-82
2021/03/06 05:28:25;;;;;;;0.00;0.00;;;0.20;99.90;;;;;;5030477;28;20206;-81
2021/03/06 05:30:51;;;;;;;0.10;0.10;;;0.20;99.90;;;;;;5028623;28;20209;-81
2021/03/06 05:33:17;;;;;;;0.00;0.00;;;0.30;99.90;;;;;;5028760;28;20202;-82
2021/03/06 05:35:44;;;;;;;0.93;0.30;;;0.30;99.90;;;;;;5028849;28;20206;-82
2021/03/06 05:38:10;;;;;;;0.63;0.50;;;0.30;99.90;;;;;;5034759;28;20201;-82
2021/03/06 05:40:39;;;;;;;0.00;0.00;;;0.30;99.90;;;;;;5027936;28;20210;-82
2021/03/06 05:43:05;;;;;;;0.20;0.17;;;0.30;99.90;;;;;;5033100;28;20344;-81
2021/03/06 05:45:31;;;;;;;0.00;0.00;;;0.30;99.90;;;;;;5032410;28;20228;-81
2021/03/06 05:47:58;;;;;;;0.23;0.23;;;0.30;99.90;;;;;;5032929;28;20293;-82
2021/03/06 05:50:24;;;;;;;0.03;0.03;;;0.30;99.90;;;;;;5033809;28;20182;-82
2021/03/06 05:52:51;;;;;;;0.10;0.10;;;0.30;99.90;;;;;;5031823;28;20570;-83
2021/03/06 05:55:18;;;;;;;0.30;0.30;;;0.10;99.90;;;;;;5032097;28;20197;-82
2021/03/06 05:57:45;;;;;;;0.00;0.00;;;0.10;99.90;;;;;;5033195;28;20189;-82
2021/03/06 06:00:13;;;;;;;0.00;0.00;;;0.00;99.90;;;;;;5033630;28;20194;-82
2021/03/06 06:02:40;;;;;;;0.00;0.00;;;0.00;99.90;;;;;;5031737;28;20206;-82
2021/03/06 06:05:06;;;;;;;0.10;0.10;;;-0.10;99.90;;;;;;5032364;28;20186;-81
2021/03/06 06:07:34;;;;;;;0.10;0.10;;;-0.10;99.90;;;;;;5031034;28;20800;-82
2021/03/06 06:10:00;;;;;;;0.00;0.00;;;-0.20;99.90;;;;;;5030794;28;20788;-82
2021/03/06 06:12:26;;;;;;;0.10;0.10;;;-0.10;99.90;;;;;;5031211;28;20206;-80
2021/03/06 06:14:52;;;;;;;0.10;0.10;;;-0.10;99.90;;;;;;5048989;28;20618;-82
2021/03/06 06:17:18;;;;;;;0.07;0.07;;;0.00;99.90;;;;;;5048675;28;20269;-81
2021/03/06 06:19:44;;;;;;;0.10;0.10;;;0.00;99.90;;;;;;5031701;28;20188;-81
2021/03/06 06:22:24;;;;;;;0.03;0.03;;;0.00;99.90;;;;;;5029566;28;20290;-82
2021/03/06 06:24:51;;;;;;;0.30;0.30;;;0.10;99.90;;;;;;5031955;28;20209;-81
2021/03/06 06:27:33;;;;;;;0.10;0.10;;;0.20;99.90;;;;;;5030132;28;20252;-81
2021/03/06 06:30:01;;;;;;;0.10;0.10;;;0.20;99.90;;;;;;5032129;28;20189;-81
2021/03/06 06:32:40;;;;;;;0.47;0.47;;;0.30;99.90;;;;;;5047290;28;21193;-80
2021/03/06 06:35:09;;;;;;;0.10;0.10;;;0.50;99.90;;;;;;5031718;28;20684;-82
2021/03/06 06:37:35;;;;;;;0.00;0.00;;;0.60;99.90;;;;;;5030222;28;20186;-81
2021/03/06 06:40:20;;;;;;;0.27;0.27;;;0.60;99.90;;;;;;5029487;28;20182;-80
2021/03/06 06:42:46;;;;;;;0.10;0.10;;;0.70;99.90;;;;;;5031103;28;20233;-80
2021/03/06 06:45:12;;;;;;;0.00;0.00;;;0.80;99.90;;;;;;5033699;28;20202;-80
2021/03/06 06:47:43;;;;;;;0.30;0.30;;;0.80;99.90;;;;;;5029200;28;20289;-80
2021/03/06 06:50:11;;;;;;;1.13;0.20;;;0.90;99.90;;;;;;5041347;28;20190;-80
2021/03/06 06:52:39;;;;;;;0.10;0.10;;;0.90;99.90;;;;;;5025515;28;20203;-80
2021/03/06 06:55:06;;;;;;;0.20;0.20;;;1.00;99.90;;;;;;5029453;28;20190;-81
2021/03/06 06:57:32;;;;;;;0.10;0.10;;;1.10;99.90;;;;;;5031563;28;20190;-82
2021/03/06 07:00:05;;;;;;;0.00;0.00;;;1.10;99.90;;;;;;5030805;28;20290;-81
2021/03/06 07:02:31;;;;;;;0.20;0.20;;;1.20;99.90;;;;;;5029241;28;20215;-82
2021/03/06 07:05:00;;;;;;;0.00;0.00;;;1.30;99.90;;;;;;5032185;28;20240;-82
2021/03/06 07:07:39;;;;;;;0.10;0.10;;;1.40;99.90;;;;;;5031706;28;20267;-82
2021/03/06 07:10:08;;;;;;;0.00;0.00;;;1.50;99.90;;;;;;5032670;28;20185;-81
2021/03/06 07:12:36;;;;;;;0.10;0.10;;;1.70;99.90;;;;;;5031486;28;20230;-82
2021/03/06 07:15:23;;;;;;;0.30;0.30;;;1.80;99.90;;;;;;5029470;28;20185;-81
2021/03/06 07:17:52;;;;;;;0.33;0.33;;;2.00;99.90;;;;;;5023689;28;20206;-82
2021/03/06 07:20:23;;;;;;;0.00;0.00;;;2.10;99.90;;;;;;5025399;28;20184;-81
2021/03/06 07:22:50;;;;;;;0.30;0.30;;;2.20;99.90;;;;;;5028047;28;20211;-81
2021/03/06 07:25:16;;;;;;;0.27;0.27;;;2.30;99.90;;;;;;5026481;28;20194;-82
2021/03/06 07:27:42;;;;;;;0.07;0.07;;;2.40;99.90;;;;;;5043402;28;20307;-82
2021/03/06 07:30:10;;;;;;;1.07;0.43;;;2.70;99.90;;;;;;5029017;28;20195;-82
2021/03/06 07:32:40;;;;;;;0.10;0.10;;;2.80;99.90;;;;;;5043215;28;20248;-82
2021/03/06 07:35:16;;;;;;;0.10;0.10;;;3.00;99.90;;;;;;5030070;28;20188;-80
2021/03/06 07:37:42;;;;;;;0.20;0.20;;;2.90;99.90;;;;;;5031456;28;20194;-82
2021/03/06 07:40:13;;;;;;;0.83;0.53;;;3.10;99.90;;;;;;5030295;28;20192;-80
2021/03/06 07:42:52;;;;;;;0.00;0.00;;;3.30;99.90;;;;;;5026177;28;20211;-82
2021/03/06 07:45:26;;;;;;;0.20;0.20;;;3.60;99.90;;;;;;5028655;28;20223;-82
2021/03/06 07:48:13;;;;;;;0.10;0.10;;;3.50;99.90;;;;;;5025406;28;20719;-82
2021/03/06 07:50:41;;;;;;;0.00;0.00;;;3.50;99.90;;;;;;5026535;28;20178;-81
2021/03/06 07:53:07;;;;;;;0.10;0.10;;;3.60;99.90;;;;;;5043848;28;20204;-82
2021/03/06 07:55:35;;;;;;;0.17;0.17;;;3.80;99.90;;;;;;5031300;28;20668;-81
2021/03/06 07:58:09;;;;;;;0.20;0.20;;;3.60;99.90;;;;;;5032903;28;20210;-81
2021/03/06 08:00:46;;;;;;;0.00;0.00;;;3.60;99.90;;;;;;5032459;28;20190;-81
2021/03/06 08:03:35;;;;;;;2.53;1.73;;;3.80;99.90;;;;;;5033952;28;20211;-82
2021/03/06 08:06:15;;;;;;;0.03;0.03;;;3.80;99.90;;;;;;5027598;28;20194;-82
2021/03/06 08:08:40;;;;;;;0.07;0.07;;;4.00;99.90;;;;;;5031062;28;20215;-81
2021/03/06 08:11:17;;;;;;;0.17;0.17;;;4.20;99.90;;;;;;5031389;28;20233;-81
2021/03/06 08:13:54;;;;;;;0.17;0.17;;;4.20;99.90;;;;;;5032883;28;20619;-80
2021/03/06 08:16:28;;;;;;;0.00;0.00;;;4.00;99.90;;;;;;5027576;28;20185;-81
2021/03/06 08:18:57;;;;;;;0.20;0.20;;;3.90;99.90;;;;;;5034793;28;20192;-81
2021/03/06 08:21:37;;;;;;;0.10;0.10;;;3.70;99.90;;;;;;5013870;28;20268;-82
2021/03/06 08:24:14;;;;;;;0.20;0.20;;;4.00;99.90;;;;;;5028646;28;20197;-81
2021/03/06 08:26:41;;;;;;;0.57;0.20;;;4.10;99.90;;;;;;5047187;28;20203;-82
2021/03/06 08:29:39;;;;;;;1.53;0.53;;;4.20;99.90;;;;;;5045651;28;20568;-82
2021/03/06 08:32:23;;;;;;;0.10;0.10;;;4.60;99.90;;;;;;5011779;28;20222;-82
2021/03/06 08:34:57;;;;;;;0.10;0.10;;;4.80;99.90;;;;;;5026481;28;20188;-82
2021/03/06 08:37:23;;;;;;;0.00;0.00;;;5.00;99.90;;;;;;5032805;28;20192;-82
2021/03/06 08:40:03;;;;;;;0.10;0.10;;;5.50;99.90;;;;;;5024638;28;20193;-81
2021/03/06 08:42:30;;;;;;;0.10;0.10;;;5.60;99.90;;;;;;5024892;28;20205;-82
2021/03/06 08:44:58;;;;;;;0.10;0.10;;;5.50;99.90;;;;;;5044301;28;20713;-81
2021/03/06 08:47:29;;;;;;;0.33;0.33;;;5.70;99.90;;;;;;5044115;28;20197;-82
2021/03/06 08:50:16;;;;;;;0.27;0.27;;;5.40;99.90;;;;;;5032777;28;20676;-81
2021/03/06 08:52:53;;;;;;;1.00;0.30;;;5.30;99.90;;;;;;5024386;28;20224;-81
2021/03/06 08:55:21;;;;;;;0.33;0.33;;;4.80;99.90;;;;;;5034858;28;20180;-82
2021/03/06 08:57:47;;;;;;;0.40;0.40;;;5.00;99.90;;;;;;5022980;28;20183;-81
2021/03/06 09:00:25;;;;;;;0.17;0.17;;;5.10;99.90;;;;;;5026359;28;20716;-81
2021/03/06 09:02:51;;;;;;;0.10;0.10;;;5.10;99.90;;;;;;5029797;28;20560;-80
2021/03/06 09:05:26;;;;;;;0.10;0.10;;;5.20;99.90;;;;;;5026495;28;20185;-81
2021/03/06 09:07:56;;;;;;;0.20;0.20;;;5.80;99.90;;;;;;5042678;28;20219;-80
2021/03/06 09:10:31;;;;;;;0.13;0.13;;;6.30;99.90;;;;;;5045096;28;20177;-81
2021/03/06 09:13:01;;;;;;;0.73;0.37;;;6.60;99.90;;;;;;5027225;28;20212;-83
2021/03/06 09:15:37;;;;;;;0.20;0.20;;;6.60;99.90;;;;;;5031406;28;20182;-81
2021/03/06 09:18:04;;;;;;;0.20;0.20;;;6.80;99.90;;;;;;5031717;28;20253;-80
2021/03/06 09:20:36;;;;;;;5.13;2.23;;;7.10;99.90;;;;;;5026004;28;20201;-81
2021/03/06 09:23:02;;;;;;;0.57;0.57;;;7.00;99.90;;;;;;5040377;28;20202;-81
2021/03/06 09:25:39;;;;;;;0.23;0.23;;;7.10;99.90;;;;;;5025549;28;20189;-80
2021/03/06 09:28:07;;;;;;;0.30;0.30;;;7.20;99.90;;;;;;5025739;28;20194;-82
2021/03/06 09:30:36;;;;;;;0.67;0.40;;;7.30;99.90;;;;;;5026451;28;20663;-80
2021/03/06 09:33:03;;;;;;;0.30;0.30;;;6.60;99.90;;;;;;5027548;28;20791;-80
2021/03/06 09:35:29;;;;;;;0.10;0.10;;;6.70;99.90;;;;;;5040160;28;20183;-81
2021/03/06 09:38:10;;;;;;;0.83;0.70;;;7.20;99.90;;;;;;5029633;28;20797;-82
2021/03/06 09:40:42;;;;;;;0.20;0.20;;;7.20;99.90;;;;;;5029769;28;20186;-81
2021/03/06 09:43:09;;;;;;;0.57;0.30;;;7.60;99.90;;;;;;5026445;28;20204;-82
2021/03/06 09:45:35;;;;;;;0.20;0.20;;;7.50;99.90;;;;;;5029365;28;20186;-81
2021/03/06 09:48:03;;;;;;;1.20;0.23;;;7.60;99.90;;;;;;5022924;28;20210;-81
2021/03/06 09:50:28;;;;;;;0.30;0.30;;;7.30;99.90;;;;;;5028937;28;20663;-82
2021/03/06 09:52:54;;;;;;;0.40;0.40;;;7.50;99.90;;;;;;5044695;28;20210;-81
2021/03/06 09:55:20;;;;;;;0.30;0.30;;;7.50;99.90;;;;;;5032193;28;20250;-82
2021/03/06 09:57:45;;;;;;;0.73;0.20;;;7.70;99.90;;;;;;5031232;28;20661;-81
2021/03/06 10:00:22;;;;;;;1.33;0.40;;;7.70;99.90;;;;;;5033677;28;20190;-81
2021/03/06 10:02:52;;;;;;;0.57;0.47;;;7.00;99.90;;;;;;5047459;28;20233;-81
2021/03/06 10:05:24;;;;;;;0.73;0.40;;;6.90;99.90;;;;;;5046769;28;20190;-82
2021/03/06 10:07:55;;;;;;;0.53;0.53;;;7.50;99.90;;;;;;5030555;28;20306;-82
2021/03/06 10:10:24;;;;;;;0.10;0.10;;;7.40;99.90;;;;;;5033954;28;20200;-81
2021/03/06 10:12:50;;;;;;;1.50;0.47;;;7.10;99.90;;;;;;5031657;28;20206;-81
2021/03/06 10:15:16;;;;;;;3.70;1.87;;;7.30;99.90;;;;;;5029758;28;20561;-81
2021/03/06 10:17:42;;;;;;;1.03;1.03;;;7.30;99.90;;;;;;5027681;28;20205;-80
2021/03/06 10:20:08;;;;;;;2.17;0.90;;;7.40;99.90;;;;;;5027966;28;20186;-82
2021/03/06 10:22:48;;;;;;;1.33;1.23;;;7.10;99.90;;;;;;5029946;28;20290;-82
2021/03/06 10:25:25;;;;;;;1.37;0.40;;;7.60;99.90;;;;;;5032692;28;20554;-81
2021/03/06 10:27:51;;;;;;;0.10;0.10;;;8.00;99.90;;;;;;5032712;28;20247;-81
2021/03/06 10:30:30;;;;;;;1.57;0.77;;;7.90;99.90;;;;;;5039782;28;20674;-81
2021/03/06 10:33:01;;;;;;;2.07;1.87;;;7.30;99.90;;;;;;5030491;28;20686;-82
2021/03/06 10:35:36;;;;;;;2.27;2.10;;;7.20;99.90;;;;;;5026107;28;20180;-81
2021/03/06 10:38:04;;;;;;;0.40;0.40;;;7.50;99.90;;;;;;5028683;28;20186;-81
2021/03/06 10:40:56;;;;;;;2.97;0.77;;;7.50;99.90;;;;;;5032777;28;20568;-80
2021/03/06 10:43:41;;;;;;;0.13;0.13;;;7.50;99.90;;;;;;5043368;28;20206;-81
2021/03/06 10:46:18;;;;;;;1.23;0.90;;;7.40;99.90;;;;;;5029674;28;20193;-81
2021/03/06 10:49:05;;;;;;;0.20;0.20;;;7.50;99.90;;;;;;5028425;28;20316;-82
2021/03/06 10:51:42;;;;;;;0.13;0.13;;;7.60;99.90;;;;;;5030188;28;20968;-81
2021/03/06 10:54:08;;;;;;;0.30;0.30;;;7.60;99.90;;;;;;5033711;28;20187;-81
2021/03/06 10:56:35;;;;;;;0.30;0.30;;;7.60;99.90;;;;;;5036099;28;20180;-81
2021/03/06 10:59:01;;;;;;;0.10;0.10;;;7.20;99.90;;;;;;5036704;28;20237;-81
2021/03/06 11:01:32;;;;;;;0.40;0.40;;;7.40;99.90;;;;;;5035318;28;20660;-81
2021/03/06 11:03:58;;;;;;;0.13;0.13;;;7.80;99.90;;;;;;5049823;28;20939;-83
2021/03/06 11:06:23;;;;;;;0.20;0.20;;;7.40;99.90;;;;;;5031206;28;20179;-82
2021/03/06 11:09:05;;;;;;;0.40;0.37;;;6.70;99.90;;;;;;5035833;28;20246;-82
2021/03/06 11:11:31;;;;;;;0.13;0.13;;;6.90;99.90;;;;;;5031179;28;20211;-82
2021/03/06 11:13:57;;;;;;;0.10;0.10;;;7.40;99.90;;;;;;5028250;28;20194;-83
2021/03/06 11:16:37;;;;;;;0.30;0.30;;;7.50;99.90;;;;;;5030531;28;20185;-83
2021/03/06 11:19:03;;;;;;;1.07;1.03;;;7.80;99.90;;;;;;5031572;28;20184;-83
2021/03/06 11:21:28;;;;;;;0.93;0.50;;;7.40;99.90;;;;;;5029907;28;20179;-83
2021/03/06 11:23:54;;;;;;;0.93;0.87;;;7.70;99.90;;;;;;5030789;28;20206;-82
2021/03/06 11:26:19;;;;;;;0.77;0.57;;;7.30;99.90;;;;;;5030462;28;20185;-82
2021/03/06 11:28:45;;;;;;;0.00;0.00;;;7.40;99.90;;;;;;5031952;28;20769;-81
2021/03/06 11:31:10;;;;;;;0.23;0.23;;;7.30;99.90;;;;;;5029782;28;20244;-80
2021/03/06 11:33:36;;;;;;;0.10;0.10;;;6.70;99.90;;;;;;5032227;28;20256;-79
2021/03/06 11:36:02;;;;;;;0.40;0.40;;;7.20;99.90;;;;;;5023926;28;20290;-81
2021/03/06 11:38:27;;;;;;;0.30;0.30;;;7.10;99.90;;;;;;5025661;28;20190;-81
2021/03/06 11:40:54;;;;;;;0.23;0.23;;;7.10;99.90;;;;;;5031696;28;20194;-82
2021/03/06 11:43:20;;;;;;;0.30;0.30;;;7.00;99.90;;;;;;5026893;28;20286;-81
2021/03/06 11:45:46;;;;;;;0.10;0.10;;;7.00;99.90;;;;;;5035725;28;20194;-78
2021/03/06 11:48:12;;;;;;;0.43;0.43;;;7.00;99.90;;;;;;5027767;28;20221;-77
2021/03/06 11:50:42;;;;;;;0.27;0.27;;;7.40;99.90;;;;;;5027715;28;20563;-80
2021/03/06 11:53:08;;;;;;;0.20;0.20;;;7.50;99.90;;;;;;5030374;28;20674;-80
2021/03/06 11:55:34;;;;;;;0.20;0.20;;;7.60;99.90;;;;;;5027044;28;20297;-79
2021/03/06 11:58:00;;;;;;;0.57;0.57;;;7.70;99.90;;;;;;5030462;28;20187;-79
2021/03/06 12:00:28;;;;;;;0.10;0.10;;;8.00;99.90;;;;;;5028283;28;20278;-82
2021/03/06 12:02:54;;;;;;;0.37;0.30;;;7.60;99.90;;;;;;5044426;28;20212;-82
2021/03/06 12:05:20;;;;;;;0.20;0.20;;;7.30;99.90;;;;;;5028408;28;20198;-80
2021/03/06 12:07:46;;;;;;;0.10;0.10;;;7.20;99.90;;;;;;5028361;28;20580;-80
2021/03/06 12:10:17;;;;;;;0.30;0.30;;;7.40;99.90;;;;;;5025604;28;20190;-79
2021/03/06 12:12:44;;;;;;;0.63;0.33;;;7.60;99.90;;;;;;5024614;28;20221;-80
2021/03/06 12:15:11;;;;;;;2.80;0.63;;;7.30;99.90;;;;;;5030239;28;20187;-80
2021/03/06 12:17:37;;;;;;;0.60;0.60;;;7.50;99.90;;;;;;5030058;28;20217;-80
2021/03/06 12:20:04;;;;;;;0.10;0.10;;;7.80;99.90;;;;;;5030926;28;20696;-80
2021/03/06 12:22:30;;;;;;;0.87;0.47;;;8.10;99.90;;;;;;5054254;28;20211;-80
2021/03/06 12:24:55;;;;;;;0.20;0.20;;;8.60;99.90;;;;;;5027439;28;20202;-80
2021/03/06 12:27:21;;;;;;;0.40;0.40;;;8.10;99.90;;;;;;5027272;28;20218;-80
2021/03/06 12:29:47;;;;;;;0.93;0.40;;;8.20;99.90;;;;;;5028944;28;20269;-79
2021/03/06 12:32:12;;;;;;;0.40;0.40;;;8.30;99.90;;;;;;5028877;28;20700;-79
2021/03/06 12:34:38;;;;;;;0.10;0.10;;;7.60;99.90;;;;;;5028623;28;20183;-80
2021/03/06 12:37:04;;;;;;;0.30;0.30;;;7.50;99.90;;;;;;5036049;28;20260;-79
2021/03/06 12:39:30;;;;;;;0.03;0.03;;;8.00;99.90;;;;;;5016398;28;20205;-79
2021/03/06 12:41:56;;;;;;;0.97;0.53;;;8.30;99.90;;;;;;5024040;28;20699;-80
2021/03/06 12:44:22;;;;;;;0.27;0.27;;;8.10;99.90;;;;;;5021011;28;20266;-82
2021/03/06 12:46:47;;;;;;;0.53;0.53;;;7.70;99.90;;;;;;5035948;28;20240;-80
2021/03/06 12:49:15;;;;;;;0.10;0.10;;;7.80;99.90;;;;;;5031992;28;20230;-81
2021/03/06 12:51:40;;;;;;;0.00;0.00;;;7.70;99.90;;;;;;5030538;28;20321;-81
2021/03/06 12:54:07;;;;;;;0.10;0.10;;;7.90;99.90;;;;;;5047354;28;20262;-80
2021/03/06 12:56:33;;;;;;;0.10;0.10;;;7.80;99.90;;;;;;5032970;28;20252;-81
2021/03/06 12:58:59;;;;;;;0.23;0.23;;;8.00;99.90;;;;;;5035506;28;20187;-80
2021/03/06 13:01:24;;;;;;;0.43;0.30;;;7.80;99.90;;;;;;5030263;28;20175;-84
2021/03/06 13:03:50;;;;;;;0.20;0.20;;;7.80;99.90;;;;;;5031961;28;20182;-81
2021/03/06 13:06:16;;;;;;;0.30;0.20;;;7.90;99.90;;;;;;5033403;28;20711;-80
2021/03/06 13:08:41;;;;;;;0.67;0.50;;;8.00;99.90;;;;;;5031788;28;20211;-80